sensor_id;sensor_type;location;lat;lon;timestamp;temperature;humidity
9730;DHT22;4904;49.152;11.004;2022-10-03T00:02:35;11.20;99.90
9730;DHT22;4904;49.152;11.004;2022-10-03T00:05:17;11.00;99.90
9730;DHT22;4904;49.152;11.004;2022-10-03T00:08:01;11.20;99.90
9730;DHT22;4904;49.152;11.004;2022-10-03T00:10:37;11.10;99.90
9730;DHT22;4904;49.152;11.004;2022-10-03T00:13:19;11.00;99.90
9730;DHT22;4904;49.152;11.004;2022-10-03T00:16:05;11.20;99.90
9730;DHT22;4904;49.152;11.004;2022-10-03T00:18:44;11.10;99.90
9730;DHT22;4904;49.152;11.004;2022-10-03T00:21:33;11.10;99.90
9730;DHT22;4904;49.152;11.004;2022-10-03T00:24:10;11.10;99.90
9730;DHT22;4904;49.152;11.004;2022-10-03T00:26:47;11.10;99.90
9730;DHT22;4904;49.152;11.004;2022-10-03T00:29:43;11.10;99.90
9730;DHT22;4904;49.152;11.004;2022-10-03T00:32:27;11.10;99.90
9730;DHT22;4904;49.152;11.004;2022-10-03T00:35:10;11.10;99.90
9730;DHT22;4904;49.152;11.004;2022-10-03T00:37:44;11.00;99.90
9730;DHT22;4904;49.152;11.004;2022-10-03T00:40:34;11.10;99.90
9730;DHT22;4904;49.152;11.004;2022-10-03T00:49:52;11.10;99.90
9730;DHT22;4904;49.152;11.004;2022-10-03T00:53:00;11.10;99.90
9730;DHT22;4904;49.152;11.004;2022-10-03T00:55:42;11.10;99.90
9730;DHT22;4904;49.152;11.004;2022-10-03T00:58:42;11.10;99.90
9730;DHT22;4904;49.152;11.004;2022-10-03T01:01:23;11.10;99.90
9730;DHT22;4904;49.152;11.004;2022-10-03T01:04:06;11.10;99.90
9730;DHT22;4904;49.152;11.004;2022-10-03T01:06:40;11.10;99.90
9730;DHT22;4904;49.152;11.004;2022-10-03T01:12:10;11.10;99.90
9730;DHT22;4904;49.152;11.004;2022-10-03T01:15:07;11.10;99.90
9730;DHT22;4904;49.152;11.004;2022-10-03T01:17:41;11.10;99.90
9730;DHT22;4904;49.152;11.004;2022-10-03T01:20:29;11.20;99.90
9730;DHT22;4904;49.152;11.004;2022-10-03T01:26:04;11.40;99.90
9730;DHT22;4904;49.152;11.004;2022-10-03T01:28:42;11.10;99.90
9730;DHT22;4904;49.152;11.004;2022-10-03T01:31:34;11.10;99.90
9730;DHT22;4904;49.152;11.004;2022-10-03T01:34:09;11.00;99.90
9730;DHT22;4904;49.152;11.004;2022-10-03T01:36:42;11.00;99.90
9730;DHT22;4904;49.152;11.004;2022-10-03T01:39:20;10.90;99.90
9730;DHT22;4904;49.152;11.004;2022-10-03T01:41:55;10.80;99.90
9730;DHT22;4904;49.152;11.004;2022-10-03T01:44:31;10.90;99.90
9730;DHT22;4904;49.152;11.004;2022-10-03T01:47:13;10.90;99.90
9730;DHT22;4904;49.152;11.004;2022-10-03T01:49:50;11.00;99.90
9730;DHT22;4904;49.152;11.004;2022-10-03T01:52:22;11.00;99.90
9730;DHT22;4904;49.152;11.004;2022-10-03T01:54:58;11.00;99.90
9730;DHT22;4904;49.152;11.004;2022-10-03T01:57:32;11.10;99.90
9730;DHT22;4904;49.152;11.004;2022-10-03T02:00:06;10.90;99.90
9730;DHT22;4904;49.152;11.004;2022-10-03T02:02:41;10.90;99.90
9730;DHT22;4904;49.152;11.004;2022-10-03T02:05:15;11.00;99.90
9730;DHT22;4904;49.152;11.004;2022-10-03T02:07:49;11.00;99.90
9730;DHT22;4904;49.152;11.004;2022-10-03T02:10:26;10.90;99.90
9730;DHT22;4904;49.152;11.004;2022-10-03T02:13:02;11.00;99.90
9730;DHT22;4904;49.152;11.004;2022-10-03T02:15:45;10.90;99.90
9730;DHT22;4904;49.152;11.004;2022-10-03T02:18:26;10.90;99.90
9730;DHT22;4904;49.152;11.004;2022-10-03T02:21:03;11.00;99.90
9730;DHT22;4904;49.152;11.004;2022-10-03T02:23:38;10.90;99.90
9730;DHT22;4904;49.152;11.004;2022-10-03T02:26:26;10.90;99.90
9730;DHT22;4904;49.152;11.004;2022-10-03T02:29:06;10.80;99.90
9730;DHT22;4904;49.152;11.004;2022-10-03T02:34:58;10.80;99.90
9730;DHT22;4904;49.152;11.004;2022-10-03T02:37:40;10.90;99.90
9730;DHT22;4904;49.152;11.004;2022-10-03T02:40:33;10.80;99.90
9730;DHT22;4904;49.152;11.004;2022-10-03T02:46:25;10.80;99.90
9730;DHT22;4904;49.152;11.004;2022-10-03T02:52:21;10.90;99.90
9730;DHT22;4904;49.152;11.004;2022-10-03T02:55:09;10.90;99.90
9730;DHT22;4904;49.152;11.004;2022-10-03T02:58:02;10.90;99.90
9730;DHT22;4904;49.152;11.004;2022-10-03T03:03:56;10.90;99.90
9730;DHT22;4904;49.152;11.004;2022-10-03T03:06:46;10.90;99.90
9730;DHT22;4904;49.152;11.004;2022-10-03T03:10:15;10.90;99.90
9730;DHT22;4904;49.152;11.004;2022-10-03T03:13:05;11.00;99.90
9730;DHT22;4904;49.152;11.004;2022-10-03T03:16:10;10.90;99.90
9730;DHT22;4904;49.152;11.004;2022-10-03T03:18:45;10.90;99.90
9730;DHT22;4904;49.152;11.004;2022-10-03T03:21:28;10.80;99.90
9730;DHT22;4904;49.152;11.004;2022-10-03T03:24:09;10.90;99.90
9730;DHT22;4904;49.152;11.004;2022-10-03T03:26:55;10.90;99.90
9730;DHT22;4904;49.152;11.004;2022-10-03T03:29:35;10.90;99.90
9730;DHT22;4904;49.152;11.004;2022-10-03T03:32:12;10.90;99.90
9730;DHT22;4904;49.152;11.004;2022-10-03T03:34:46;11.00;99.90
9730;DHT22;4904;49.152;11.004;2022-10-03T03:37:23;10.90;99.90
9730;DHT22;4904;49.152;11.004;2022-10-03T03:40:09;10.90;99.90
9730;DHT22;4904;49.152;11.004;2022-10-03T03:43:02;10.90;99.90
9730;DHT22;4904;49.152;11.004;2022-10-03T03:45:44;10.90;99.90
9730;DHT22;4904;49.152;11.004;2022-10-03T03:51:19;10.90;99.90
9730;DHT22;4904;49.152;11.004;2022-10-03T03:57:20;10.90;99.90
9730;DHT22;4904;49.152;11.004;2022-10-03T04:00:05;10.80;99.90
9730;DHT22;4904;49.152;11.004;2022-10-03T04:02:44;10.90;99.90
9730;DHT22;4904;49.152;11.004;2022-10-03T04:05:24;10.80;99.90
9730;DHT22;4904;49.152;11.004;2022-10-03T04:08:02;10.80;99.90
9730;DHT22;4904;49.152;11.004;2022-10-03T04:10:47;10.80;99.90
9730;DHT22;4904;49.152;11.004;2022-10-03T04:13:28;10.80;99.90
9730;DHT22;4904;49.152;11.004;2022-10-03T04:16:09;10.70;99.90
9730;DHT22;4904;49.152;11.004;2022-10-03T04:18:49;10.60;99.90
9730;DHT22;4904;49.152;11.004;2022-10-03T04:21:39;10.60;99.90
9730;DHT22;4904;49.152;11.004;2022-10-03T04:27:24;10.50;99.90
9730;DHT22;4904;49.152;11.004;2022-10-03T04:30:02;10.50;99.90
9730;DHT22;4904;49.152;11.004;2022-10-03T04:32:45;10.50;99.90
9730;DHT22;4904;49.152;11.004;2022-10-03T04:38:17;10.40;99.90
9730;DHT22;4904;49.152;11.004;2022-10-03T04:40:54;10.40;99.90
9730;DHT22;4904;49.152;11.004;2022-10-03T04:43:31;10.30;99.90
9730;DHT22;4904;49.152;11.004;2022-10-03T04:46:14;10.40;99.90
9730;DHT22;4904;49.152;11.004;2022-10-03T04:48:48;10.30;99.90
9730;DHT22;4904;49.152;11.004;2022-10-03T04:51:26;10.30;99.90
9730;DHT22;4904;49.152;11.004;2022-10-03T04:54:02;10.40;99.90
9730;DHT22;4904;49.152;11.004;2022-10-03T04:56:47;10.40;99.90
9730;DHT22;4904;49.152;11.004;2022-10-03T04:59:33;10.40;99.90
9730;DHT22;4904;49.152;11.004;2022-10-03T05:02:03;10.40;99.90
9730;DHT22;4904;49.152;11.004;2022-10-03T05:04:41;10.40;99.90
9730;DHT22;4904;49.152;11.004;2022-10-03T05:07:15;10.30;99.90
9730;DHT22;4904;49.152;11.004;2022-10-03T05:09:49;10.30;99.90
9730;DHT22;4904;49.152;11.004;2022-10-03T05:12:27;10.30;99.90
9730;DHT22;4904;49.152;11.004;2022-10-03T05:15:04;10.40;99.90
9730;DHT22;4904;49.152;11.004;2022-10-03T05:17:45;10.30;99.90
9730;DHT22;4904;49.152;11.004;2022-10-03T05:20:25;10.30;99.90
9730;DHT22;4904;49.152;11.004;2022-10-03T05:23:01;10.30;99.90
9730;DHT22;4904;49.152;11.004;2022-10-03T05:25:42;10.20;99.90
9730;DHT22;4904;49.152;11.004;2022-10-03T05:28:17;10.20;99.90
9730;DHT22;4904;49.152;11.004;2022-10-03T05:30:51;10.20;99.90
9730;DHT22;4904;49.152;11.004;2022-10-03T05:33:28;10.10;99.90
9730;DHT22;4904;49.152;11.004;2022-10-03T05:36:09;10.10;99.90
9730;DHT22;4904;49.152;11.004;2022-10-03T05:38:59;10.10;99.90
9730;DHT22;4904;49.152;11.004;2022-10-03T05:41:29;10.10;99.90
9730;DHT22;4904;49.152;11.004;2022-10-03T05:44:03;10.10;99.90
9730;DHT22;4904;49.152;11.004;2022-10-03T05:49:48;10.10;99.90
9730;DHT22;4904;49.152;11.004;2022-10-03T05:52:35;10.10;99.90
9730;DHT22;4904;49.152;11.004;2022-10-03T05:55:25;10.00;99.90
9730;DHT22;4904;49.152;11.004;2022-10-03T05:58:25;10.20;99.90
9730;DHT22;4904;49.152;11.004;2022-10-03T06:01:19;10.20;99.90
9730;DHT22;4904;49.152;11.004;2022-10-03T06:04:08;10.20;99.90
9730;DHT22;4904;49.152;11.004;2022-10-03T06:06:50;10.20;99.90
9730;DHT22;4904;49.152;11.004;2022-10-03T06:12:34;10.10;99.90
9730;DHT22;4904;49.152;11.004;2022-10-03T06:15:23;10.10;99.90
9730;DHT22;4904;49.152;11.004;2022-10-03T06:17:59;9.90;99.90
9730;DHT22;4904;49.152;11.004;2022-10-03T06:21:06;10.10;99.90
9730;DHT22;4904;49.152;11.004;2022-10-03T06:24:07;10.10;99.90
9730;DHT22;4904;49.152;11.004;2022-10-03T06:39:21;10.20;99.90
9730;DHT22;4904;49.152;11.004;2022-10-03T06:42:34;10.30;99.90
9730;DHT22;4904;49.152;11.004;2022-10-03T06:51:41;10.20;99.90
9730;DHT22;4904;49.152;11.004;2022-10-03T06:54:36;10.20;99.90
9730;DHT22;4904;49.152;11.004;2022-10-03T06:57:21;10.20;99.90
9730;DHT22;4904;49.152;11.004;2022-10-03T07:00:10;10.20;99.90
9730;DHT22;4904;49.152;11.004;2022-10-03T07:03:02;10.30;99.90
9730;DHT22;4904;49.152;11.004;2022-10-03T07:06:08;10.30;99.90
9730;DHT22;4904;49.152;11.004;2022-10-03T07:12:04;10.50;99.90
9730;DHT22;4904;49.152;11.004;2022-10-03T07:18:03;10.60;99.90
9730;DHT22;4904;49.152;11.004;2022-10-03T07:23:57;10.70;99.90
9730;DHT22;4904;49.152;11.004;2022-10-03T07:26:57;10.70;99.90
9730;DHT22;4904;49.152;11.004;2022-10-03T07:29:37;10.80;99.90
9730;DHT22;4904;49.152;11.004;2022-10-03T07:32:29;10.80;99.90
9730;DHT22;4904;49.152;11.004;2022-10-03T07:35:40;10.90;99.90
9730;DHT22;4904;49.152;11.004;2022-10-03T07:38:59;10.80;99.90
9730;DHT22;4904;49.152;11.004;2022-10-03T07:41:52;10.70;99.90
9730;DHT22;4904;49.152;11.004;2022-10-03T07:47:51;10.80;99.90
9730;DHT22;4904;49.152;11.004;2022-10-03T07:50:37;10.80;99.90
9730;DHT22;4904;49.152;11.004;2022-10-03T07:56:13;10.90;99.90
9730;DHT22;4904;49.152;11.004;2022-10-03T07:58:59;11.10;99.90
9730;DHT22;4904;49.152;11.004;2022-10-03T08:04:43;11.10;99.90
9730;DHT22;4904;49.152;11.004;2022-10-03T08:07:44;11.10;99.90
9730;DHT22;4904;49.152;11.004;2022-10-03T08:10:33;11.30;99.90
9730;DHT22;4904;49.152;11.004;2022-10-03T08:13:14;11.40;99.90
9730;DHT22;4904;49.152;11.004;2022-10-03T08:16:01;11.40;99.90
9730;DHT22;4904;49.152;11.004;2022-10-03T08:18:58;11.50;99.90
9730;DHT22;4904;49.152;11.004;2022-10-03T08:21:41;11.60;99.90
9730;DHT22;4904;49.152;11.004;2022-10-03T08:24:36;11.60;99.90
9730;DHT22;4904;49.152;11.004;2022-10-03T08:27:30;11.70;99.90
9730;DHT22;4904;49.152;11.004;2022-10-03T08:30:21;11.80;99.90
9730;DHT22;4904;49.152;11.004;2022-10-03T08:33:22;11.80;99.90
9730;DHT22;4904;49.152;11.004;2022-10-03T08:39:17;11.80;99.90
9730;DHT22;4904;49.152;11.004;2022-10-03T08:42:23;11.90;99.90
9730;DHT22;4904;49.152;11.004;2022-10-03T08:45:30;12.10;99.90
9730;DHT22;4904;49.152;11.004;2022-10-03T08:51:44;12.10;99.90
9730;DHT22;4904;49.152;11.004;2022-10-03T08:57:36;12.40;99.90
9730;DHT22;4904;49.152;11.004;2022-10-03T09:00:14;12.60;99.90
9730;DHT22;4904;49.152;11.004;2022-10-03T09:03:00;12.70;99.90
9730;DHT22;4904;49.152;11.004;2022-10-03T09:06:15;12.60;99.90
9730;DHT22;4904;49.152;11.004;2022-10-03T09:09:13;12.80;99.90
9730;DHT22;4904;49.152;11.004;2022-10-03T09:12:16;12.80;99.90
9730;DHT22;4904;49.152;11.004;2022-10-03T09:15:10;12.80;99.90
9730;DHT22;4904;49.152;11.004;2022-10-03T09:18:19;12.90;99.90
9730;DHT22;4904;49.152;11.004;2022-10-03T09:24:23;13.30;99.90
9730;DHT22;4904;49.152;11.004;2022-10-03T09:27:19;13.20;99.90
9730;DHT22;4904;49.152;11.004;2022-10-03T09:30:22;13.00;99.90
9730;DHT22;4904;49.152;11.004;2022-10-03T09:36:00;13.10;99.90
9730;DHT22;4904;49.152;11.004;2022-10-03T15:41:07;14.70;99.90
9730;DHT22;4904;49.152;11.004;2022-10-03T15:43:40;14.60;99.90
9730;DHT22;4904;49.152;11.004;2022-10-03T15:46:14;14.70;99.90
9730;DHT22;4904;49.152;11.004;2022-10-03T15:48:51;14.60;99.90
9730;DHT22;4904;49.152;11.004;2022-10-03T15:51:23;14.50;99.90
9730;DHT22;4904;49.152;11.004;2022-10-03T15:53:54;14.50;99.90
9730;DHT22;4904;49.152;11.004;2022-10-03T15:56:25;14.40;99.90
9730;DHT22;4904;49.152;11.004;2022-10-03T15:59:00;14.40;99.90
9730;DHT22;4904;49.152;11.004;2022-10-03T16:01:32;14.30;99.90
9730;DHT22;4904;49.152;11.004;2022-10-03T16:04:02;14.30;99.90
9730;DHT22;4904;49.152;11.004;2022-10-03T16:06:36;14.20;99.90
9730;DHT22;4904;49.152;11.004;2022-10-03T16:09:12;14.20;99.90
9730;DHT22;4904;49.152;11.004;2022-10-03T16:11:49;14.10;99.90
9730;DHT22;4904;49.152;11.004;2022-10-03T16:14:22;14.00;99.90
9730;DHT22;4904;49.152;11.004;2022-10-03T16:16:53;14.00;99.90
9730;DHT22;4904;49.152;11.004;2022-10-03T16:19:26;14.00;99.90
9730;DHT22;4904;49.152;11.004;2022-10-03T16:22:00;14.10;99.90
9730;DHT22;4904;49.152;11.004;2022-10-03T16:24:35;14.10;99.90
9730;DHT22;4904;49.152;11.004;2022-10-03T16:27:12;14.30;99.90
9730;DHT22;4904;49.152;11.004;2022-10-03T16:29:44;14.10;99.90
9730;DHT22;4904;49.152;11.004;2022-10-03T16:32:16;14.10;99.90
9730;DHT22;4904;49.152;11.004;2022-10-03T16:34:45;14.10;99.90
9730;DHT22;4904;49.152;11.004;2022-10-03T16:37:17;14.10;99.90
9730;DHT22;4904;49.152;11.004;2022-10-03T16:39:56;14.00;99.90
9730;DHT22;4904;49.152;11.004;2022-10-03T16:42:34;13.90;99.90
9730;DHT22;4904;49.152;11.004;2022-10-03T16:45:12;13.90;99.90
9730;DHT22;4904;49.152;11.004;2022-10-03T16:47:43;13.80;99.90
9730;DHT22;4904;49.152;11.004;2022-10-03T16:50:20;13.70;99.90
9730;DHT22;4904;49.152;11.004;2022-10-03T16:52:51;13.60;99.90
9730;DHT22;4904;49.152;11.004;2022-10-03T16:55:22;13.50;99.90
9730;DHT22;4904;49.152;11.004;2022-10-03T16:57:56;13.40;99.90
9730;DHT22;4904;49.152;11.004;2022-10-03T17:00:27;13.40;99.90
9730;DHT22;4904;49.152;11.004;2022-10-03T17:02:56;13.40;99.90
9730;DHT22;4904;49.152;11.004;2022-10-03T17:05:23;13.40;99.90
9730;DHT22;4904;49.152;11.004;2022-10-03T17:07:53;13.30;99.90
9730;DHT22;4904;49.152;11.004;2022-10-03T17:10:36;13.20;99.90
9730;DHT22;4904;49.152;11.004;2022-10-03T17:13:11;13.00;99.90
9730;DHT22;4904;49.152;11.004;2022-10-03T17:15:46;12.90;99.90
9730;DHT22;4904;49.152;11.004;2022-10-03T17:18:20;12.90;99.90
9730;DHT22;4904;49.152;11.004;2022-10-03T17:20:54;12.80;99.90
9730;DHT22;4904;49.152;11.004;2022-10-03T17:23:27;12.80;99.90
9730;DHT22;4904;49.152;11.004;2022-10-03T17:26:01;12.80;99.90
9730;DHT22;4904;49.152;11.004;2022-10-03T17:28:39;12.70;99.90
9730;DHT22;4904;49.152;11.004;2022-10-03T17:31:22;12.60;99.90
9730;DHT22;4904;49.152;11.004;2022-10-03T17:33:53;12.60;99.90
9730;DHT22;4904;49.152;11.004;2022-10-03T17:36:55;12.60;99.90
9730;DHT22;4904;49.152;11.004;2022-10-03T17:39:40;12.60;99.90
9730;DHT22;4904;49.152;11.004;2022-10-03T17:42:25;12.40;99.90
9730;DHT22;4904;49.152;11.004;2022-10-03T17:45:09;12.50;99.90
9730;DHT22;4904;49.152;11.004;2022-10-03T17:47:48;12.60;99.90
9730;DHT22;4904;49.152;11.004;2022-10-03T17:50:23;12.60;99.90
9730;DHT22;4904;49.152;11.004;2022-10-03T17:52:52;12.60;99.90
9730;DHT22;4904;49.152;11.004;2022-10-03T17:55:24;12.60;99.90
9730;DHT22;4904;49.152;11.004;2022-10-03T17:57:54;12.50;99.90
9730;DHT22;4904;49.152;11.004;2022-10-03T18:00:26;12.40;99.90
9730;DHT22;4904;49.152;11.004;2022-10-03T18:02:59;12.40;99.90
9730;DHT22;4904;49.152;11.004;2022-10-03T18:05:29;12.40;99.90
9730;DHT22;4904;49.152;11.004;2022-10-03T18:08:03;12.40;99.90
9730;DHT22;4904;49.152;11.004;2022-10-03T18:10:35;12.40;99.90
9730;DHT22;4904;49.152;11.004;2022-10-03T18:13:08;12.20;99.90
9730;DHT22;4904;49.152;11.004;2022-10-03T18:18:51;12.30;99.90
9730;DHT22;4904;49.152;11.004;2022-10-03T18:21:30;12.30;99.90
9730;DHT22;4904;49.152;11.004;2022-10-03T18:27:46;11.90;99.90
9730;DHT22;4904;49.152;11.004;2022-10-03T18:30:21;11.80;99.90
9730;DHT22;4904;49.152;11.004;2022-10-03T18:32:52;11.90;99.90
9730;DHT22;4904;49.152;11.004;2022-10-03T18:35:26;11.90;99.90
9730;DHT22;4904;49.152;11.004;2022-10-03T18:38:01;12.00;99.90
9730;DHT22;4904;49.152;11.004;2022-10-03T18:40:32;12.00;99.90
9730;DHT22;4904;49.152;11.004;2022-10-03T18:43:01;12.10;99.90
9730;DHT22;4904;49.152;11.004;2022-10-03T18:45:33;12.00;99.90
9730;DHT22;4904;49.152;11.004;2022-10-03T18:48:08;12.00;99.90
9730;DHT22;4904;49.152;11.004;2022-10-03T18:50:49;11.80;99.90
9730;DHT22;4904;49.152;11.004;2022-10-03T18:53:24;11.90;99.90
9730;DHT22;4904;49.152;11.004;2022-10-03T18:55:58;11.90;99.90
9730;DHT22;4904;49.152;11.004;2022-10-03T18:58:30;11.90;99.90
9730;DHT22;4904;49.152;11.004;2022-10-03T19:01:01;12.00;99.90
9730;DHT22;4904;49.152;11.004;2022-10-03T19:03:34;11.80;99.90
9730;DHT22;4904;49.152;11.004;2022-10-03T19:06:04;11.80;99.90
9730;DHT22;4904;49.152;11.004;2022-10-03T19:08:35;11.80;99.90
9730;DHT22;4904;49.152;11.004;2022-10-03T19:11:10;11.90;99.90
9730;DHT22;4904;49.152;11.004;2022-10-03T19:13:43;11.90;99.90
9730;DHT22;4904;49.152;11.004;2022-10-03T19:16:40;11.80;99.90
9730;DHT22;4904;49.152;11.004;2022-10-03T19:19:19;11.80;99.90
9730;DHT22;4904;49.152;11.004;2022-10-03T19:21:49;11.80;99.90
9730;DHT22;4904;49.152;11.004;2022-10-03T19:24:19;11.90;99.90
9730;DHT22;4904;49.152;11.004;2022-10-03T19:26:49;11.90;99.90
9730;DHT22;4904;49.152;11.004;2022-10-03T19:29:21;11.90;99.90
9730;DHT22;4904;49.152;11.004;2022-10-03T19:31:58;11.90;99.90
9730;DHT22;4904;49.152;11.004;2022-10-03T19:34:32;11.80;99.90
9730;DHT22;4904;49.152;11.004;2022-10-03T19:37:02;11.80;99.90
9730;DHT22;4904;49.152;11.004;2022-10-03T19:39:32;11.80;99.90
9730;DHT22;4904;49.152;11.004;2022-10-03T19:42:13;11.80;99.90
9730;DHT22;4904;49.152;11.004;2022-10-03T19:44:46;11.80;99.90
9730;DHT22;4904;49.152;11.004;2022-10-03T19:47:15;11.70;99.90
9730;DHT22;4904;49.152;11.004;2022-10-03T19:49:51;11.60;99.90
9730;DHT22;4904;49.152;11.004;2022-10-03T19:52:24;11.60;99.90
9730;DHT22;4904;49.152;11.004;2022-10-03T19:55:08;11.50;99.90
9730;DHT22;4904;49.152;11.004;2022-10-03T19:57:44;11.50;99.90
9730;DHT22;4904;49.152;11.004;2022-10-03T20:00:27;11.40;99.90
9730;DHT22;4904;49.152;11.004;2022-10-03T20:03:03;11.40;99.90
9730;DHT22;4904;49.152;11.004;2022-10-03T20:05:37;11.40;99.90
9730;DHT22;4904;49.152;11.004;2022-10-03T20:08:15;11.40;99.90
9730;DHT22;4904;49.152;11.004;2022-10-03T20:10:51;11.30;99.90
9730;DHT22;4904;49.152;11.004;2022-10-03T20:13:21;11.20;99.90
9730;DHT22;4904;49.152;11.004;2022-10-03T20:15:49;11.10;99.90
9730;DHT22;4904;49.152;11.004;2022-10-03T20:18:21;11.00;99.90
9730;DHT22;4904;49.152;11.004;2022-10-03T20:20:53;11.00;99.90
9730;DHT22;4904;49.152;11.004;2022-10-03T20:23:22;11.00;99.90
9730;DHT22;4904;49.152;11.004;2022-10-03T20:25:53;10.90;99.90
9730;DHT22;4904;49.152;11.004;2022-10-03T20:28:26;10.90;99.90
9730;DHT22;4904;49.152;11.004;2022-10-03T20:30:55;10.90;99.90
9730;DHT22;4904;49.152;11.004;2022-10-03T20:33:24;10.80;99.90
9730;DHT22;4904;49.152;11.004;2022-10-03T20:35:57;10.80;99.90
9730;DHT22;4904;49.152;11.004;2022-10-03T20:38:49;10.70;99.90
9730;DHT22;4904;49.152;11.004;2022-10-03T20:41:29;10.70;99.90
9730;DHT22;4904;49.152;11.004;2022-10-03T20:44:03;10.70;99.90
9730;DHT22;4904;49.152;11.004;2022-10-03T20:46:35;10.50;99.90
9730;DHT22;4904;49.152;11.004;2022-10-03T20:49:22;10.50;99.90
9730;DHT22;4904;49.152;11.004;2022-10-03T20:51:59;10.50;99.90
9730;DHT22;4904;49.152;11.004;2022-10-03T20:54:33;10.50;99.90
9730;DHT22;4904;49.152;11.004;2022-10-03T20:57:03;10.50;99.90
9730;DHT22;4904;49.152;11.004;2022-10-03T20:59:38;10.50;99.90
9730;DHT22;4904;49.152;11.004;2022-10-03T21:02:16;10.40;99.90
9730;DHT22;4904;49.152;11.004;2022-10-03T21:04:51;10.40;99.90
9730;DHT22;4904;49.152;11.004;2022-10-03T21:07:34;10.30;99.90
9730;DHT22;4904;49.152;11.004;2022-10-03T21:10:12;10.30;99.90
9730;DHT22;4904;49.152;11.004;2022-10-03T21:12:45;10.20;99.90
9730;DHT22;4904;49.152;11.004;2022-10-03T21:15:19;10.10;99.90
9730;DHT22;4904;49.152;11.004;2022-10-03T21:17:48;10.00;99.90
9730;DHT22;4904;49.152;11.004;2022-10-03T21:20:19;9.90;99.90
9730;DHT22;4904;49.152;11.004;2022-10-03T21:22:51;9.90;99.90
9730;DHT22;4904;49.152;11.004;2022-10-03T21:25:22;10.00;99.90
9730;DHT22;4904;49.152;11.004;2022-10-03T21:27:53;10.00;99.90
9730;DHT22;4904;49.152;11.004;2022-10-03T21:30:28;10.00;99.90
9730;DHT22;4904;49.152;11.004;2022-10-03T21:33:08;9.90;99.90
9730;DHT22;4904;49.152;11.004;2022-10-03T21:35:38;9.90;99.90
9730;DHT22;4904;49.152;11.004;2022-10-03T21:38:16;9.80;99.90
9730;DHT22;4904;49.152;11.004;2022-10-03T21:41:03;9.70;99.90
9730;DHT22;4904;49.152;11.004;2022-10-03T21:43:46;9.70;99.90
9730;DHT22;4904;49.152;11.004;2022-10-03T21:46:20;9.80;99.90
9730;DHT22;4904;49.152;11.004;2022-10-03T21:49:13;9.80;99.90
9730;DHT22;4904;49.152;11.004;2022-10-03T21:52:02;9.70;99.90
9730;DHT22;4904;49.152;11.004;2022-10-03T21:54:38;9.60;99.90
9730;DHT22;4904;49.152;11.004;2022-10-03T21:57:11;9.60;99.90
9730;DHT22;4904;49.152;11.004;2022-10-03T21:59:49;9.40;99.90
9730;DHT22;4904;49.152;11.004;2022-10-03T22:02:28;9.40;99.90
9730;DHT22;4904;49.152;11.004;2022-10-03T22:05:01;9.40;99.90
9730;DHT22;4904;49.152;11.004;2022-10-03T22:07:35;9.40;99.90
9730;DHT22;4904;49.152;11.004;2022-10-03T22:10:13;9.50;99.90
9730;DHT22;4904;49.152;11.004;2022-10-03T22:12:42;9.50;99.90
9730;DHT22;4904;49.152;11.004;2022-10-03T22:15:18;9.50;99.90
9730;DHT22;4904;49.152;11.004;2022-10-03T22:17:51;9.30;99.90
9730;DHT22;4904;49.152;11.004;2022-10-03T22:20:21;9.40;99.90
9730;DHT22;4904;49.152;11.004;2022-10-03T22:23:10;9.40;99.90
9730;DHT22;4904;49.152;11.004;2022-10-03T22:25:50;9.40;99.90
9730;DHT22;4904;49.152;11.004;2022-10-03T22:28:31;9.40;99.90
9730;DHT22;4904;49.152;11.004;2022-10-03T22:31:08;9.30;99.90
9730;DHT22;4904;49.152;11.004;2022-10-03T22:33:47;9.30;99.90
9730;DHT22;4904;49.152;11.004;2022-10-03T22:36:18;9.10;99.90
9730;DHT22;4904;49.152;11.004;2022-10-03T22:38:46;9.00;99.90
9730;DHT22;4904;49.152;11.004;2022-10-03T22:41:17;9.20;99.90
9730;DHT22;4904;49.152;11.004;2022-10-03T22:43:45;9.10;99.90
9730;DHT22;4904;49.152;11.004;2022-10-03T22:46:17;9.00;99.90
9730;DHT22;4904;49.152;11.004;2022-10-03T22:48:48;9.00;99.90
9730;DHT22;4904;49.152;11.004;2022-10-03T22:51:18;9.00;99.90
9730;DHT22;4904;49.152;11.004;2022-10-03T22:53:49;8.90;99.90
9730;DHT22;4904;49.152;11.004;2022-10-03T22:56:41;8.90;99.90
9730;DHT22;4904;49.152;11.004;2022-10-03T22:59:10;8.80;99.90
9730;DHT22;4904;49.152;11.004;2022-10-03T23:01:41;8.80;99.90
9730;DHT22;4904;49.152;11.004;2022-10-03T23:04:14;8.80;99.90
9730;DHT22;4904;49.152;11.004;2022-10-03T23:07:00;8.70;99.90
9730;DHT22;4904;49.152;11.004;2022-10-03T23:09:36;8.70;99.90
9730;DHT22;4904;49.152;11.004;2022-10-03T23:12:08;8.60;99.90
9730;DHT22;4904;49.152;11.004;2022-10-03T23:14:40;8.60;99.90
9730;DHT22;4904;49.152;11.004;2022-10-03T23:17:22;8.60;99.90
9730;DHT22;4904;49.152;11.004;2022-10-03T23:19:59;8.70;99.90
9730;DHT22;4904;49.152;11.004;2022-10-03T23:22:32;8.60;99.90
9730;DHT22;4904;49.152;11.004;2022-10-03T23:25:01;8.40;99.90
9730;DHT22;4904;49.152;11.004;2022-10-03T23:27:48;8.40;99.90
9730;DHT22;4904;49.152;11.004;2022-10-03T23:30:46;8.50;99.90
9730;DHT22;4904;49.152;11.004;2022-10-03T23:33:18;8.50;99.90
9730;DHT22;4904;49.152;11.004;2022-10-03T23:36:13;8.40;99.90
9730;DHT22;4904;49.152;11.004;2022-10-03T23:38:52;8.40;99.90
9730;DHT22;4904;49.152;11.004;2022-10-03T23:41:29;8.30;99.90
9730;DHT22;4904;49.152;11.004;2022-10-03T23:43:58;8.20;99.90
9730;DHT22;4904;49.152;11.004;2022-10-03T23:46:27;8.30;99.90
9730;DHT22;4904;49.152;11.004;2022-10-03T23:48:57;8.30;99.90
9730;DHT22;4904;49.152;11.004;2022-10-03T23:51:27;8.30;99.90
9730;DHT22;4904;49.152;11.004;2022-10-03T23:53:56;8.30;99.90
9730;DHT22;4904;49.152;11.004;2022-10-03T23:56:33;8.20;99.90
9730;DHT22;4904;49.152;11.004;2022-10-03T23:59:16;8.10;99.90
